createdAt,value
2023-04-13T00:02:58.916Z,98312.23
2023-04-13T00:06:03.126Z,98311.04
2023-04-13T00:09:05.969Z,98313.36
2023-04-13T00:12:11.040Z,98310.52
2023-04-13T00:15:19.693Z,98323.09
2023-04-13T00:18:22.160Z,98333.20
2023-04-13T00:21:25.959Z,98340.45
2023-04-13T00:24:29.878Z,98341.06
2023-04-13T00:27:32.731Z,98348.58
2023-04-13T00:30:35.522Z,98349.02
2023-04-13T00:33:38.151Z,98348.77
2023-04-13T00:36:41.234Z,98348.02
2023-04-13T00:39:46.237Z,98342.13
2023-04-13T00:42:50.868Z,98345.60
2023-04-13T00:45:53.695Z,98349.54
2023-04-13T00:48:58.296Z,98354.11
2023-04-13T00:52:05.041Z,98347.17
2023-04-13T00:55:08.008Z,98354.52
2023-04-13T00:58:10.957Z,98342.58
2023-04-13T01:01:13.623Z,98356.28
2023-04-13T01:04:20.014Z,98358.17
2023-04-13T01:07:37.324Z,98354.30
2023-04-13T01:10:50.579Z,98351.55
2023-04-13T01:14:07.941Z,98350.75
2023-04-13T01:17:21.865Z,98351.39
2023-04-13T01:20:27.799Z,98354.92
2023-04-13T01:23:46.381Z,98355.89
2023-04-13T01:27:11.805Z,98353.56
2023-04-13T01:30:16.936Z,98352.58
2023-04-13T01:33:20.951Z,98346.70
2023-04-13T01:36:23.722Z,98343.67
2023-04-13T01:39:32.165Z,98342.12
2023-04-13T01:42:34.805Z,98344.66
2023-04-13T01:46:04.219Z,98354.70
2023-04-13T01:49:10.391Z,98358.58
2023-04-13T01:52:14.256Z,98360.97
2023-04-13T01:55:18.089Z,98366.91
2023-04-13T01:58:20.975Z,98372.52
2023-04-13T02:01:25.422Z,98376.19
2023-04-13T02:04:28.382Z,98383.63
2023-04-13T02:07:30.895Z,98388.81
2023-04-13T02:10:34.903Z,98391.61
2023-04-13T02:13:37.800Z,98389.73
2023-04-13T02:16:40.488Z,98387.74
2023-04-13T02:19:44.226Z,98393.48
2023-04-13T02:22:46.868Z,98394.58
2023-04-13T02:25:50.840Z,98384.20
2023-04-13T02:28:53.506Z,98396.71
2023-04-13T02:31:56.238Z,98392.33
2023-04-13T02:35:00.147Z,98389.30
2023-04-13T02:38:04.092Z,98385.50
2023-04-13T02:41:06.792Z,98385.25
2023-04-13T02:44:09.395Z,98386.95
2023-04-13T02:47:12.079Z,98381.46
2023-04-13T02:50:14.728Z,98379.38
2023-04-13T02:53:17.693Z,98376.33
2023-04-13T02:56:31.081Z,98370.60
2023-04-13T02:59:34.104Z,98365.70
2023-04-13T03:02:38.423Z,98367.32
2023-04-13T03:05:41.077Z,98375.98
2023-04-13T03:08:43.624Z,98377.17
2023-04-13T03:11:46.345Z,98381.85
2023-04-13T03:14:49.849Z,98384.81
2023-04-13T03:17:53.185Z,98388.58
2023-04-13T03:20:56.011Z,98388.13
2023-04-13T03:23:59.280Z,98395.66
2023-04-13T03:27:02.698Z,98403.34
2023-04-13T03:30:06.296Z,98399.02
2023-04-13T03:33:08.872Z,98398.60
2023-04-13T03:36:11.514Z,98402.97
2023-04-13T03:39:14.194Z,98400.16
2023-04-13T03:42:16.916Z,98401.48
2023-04-13T03:45:19.593Z,98402.05
2023-04-13T03:48:22.757Z,98405.58
2023-04-13T03:51:25.980Z,98411.09
2023-04-13T03:54:28.567Z,98415.27
2023-04-13T03:57:31.397Z,98419.21
2023-04-13T04:00:34.076Z,98423.77
2023-04-13T04:03:38.462Z,98429.15
2023-04-13T04:06:41.222Z,98429.76
2023-04-13T04:09:46.375Z,98430.20
2023-04-13T04:12:49.052Z,98439.09
2023-04-13T04:15:52.099Z,98445.59
2023-04-13T04:18:54.749Z,98449.69
2023-04-13T04:21:58.220Z,98454.06
2023-04-13T04:25:01.933Z,98450.95
2023-04-13T04:28:06.819Z,98455.68
2023-04-13T04:31:12.825Z,98460.57
2023-04-13T04:34:16.940Z,98463.79
2023-04-13T04:37:23.443Z,98465.48
2023-04-13T04:40:28.018Z,98467.52
2023-04-13T04:43:30.690Z,98469.24
2023-04-13T04:46:33.302Z,98476.20
2023-04-13T04:49:38.274Z,98481.27
2023-04-13T04:52:41.826Z,98480.94
2023-04-13T04:55:44.536Z,98479.23
2023-04-13T04:58:47.140Z,98487.08
2023-04-13T05:01:56.201Z,98488.27
2023-04-13T05:04:58.913Z,98497.79
2023-04-13T05:08:01.614Z,98495.14
2023-04-13T05:11:07.599Z,98503.62
2023-04-13T05:14:10.363Z,98503.04
2023-04-13T05:17:13.057Z,98505.34
2023-04-13T05:20:15.828Z,98505.88
2023-04-13T05:23:18.414Z,98510.27
2023-04-13T05:26:20.992Z,98514.64
2023-04-13T05:29:23.572Z,98520.03
2023-04-13T05:32:26.230Z,98522.45
2023-04-13T05:35:28.927Z,98520.53
2023-04-13T05:38:31.896Z,98521.23
2023-04-13T05:41:34.580Z,98526.86
2023-04-13T05:44:37.195Z,98532.64
2023-04-13T05:47:40.395Z,98532.52
2023-04-13T05:50:43.815Z,98528.01
2023-04-13T05:53:46.809Z,98525.49
2023-04-13T05:56:49.406Z,98530.35
2023-04-13T05:59:53.447Z,98535.20
2023-04-13T06:02:57.915Z,98536.98
2023-04-13T06:06:01.471Z,98546.59
2023-04-13T06:09:05.675Z,98555.20
2023-04-13T06:12:09.152Z,98561.63
2023-04-13T06:15:11.996Z,98563.25
2023-04-13T06:18:15.826Z,98565.66
2023-04-13T06:21:18.820Z,98573.67
2023-04-13T06:24:21.855Z,98584.55
2023-04-13T06:27:33.684Z,98592.30
2023-04-13T06:30:37.292Z,98591.89
2023-04-13T06:33:39.920Z,98595.98
2023-04-13T06:36:43.303Z,98598.20
2023-04-13T06:39:46.151Z,98600.24
2023-04-13T06:42:49.158Z,98589.80
2023-04-13T06:45:58.747Z,98617.83
2023-04-13T06:49:01.621Z,98635.15
2023-04-13T06:52:04.780Z,98652.19
2023-04-13T06:55:07.773Z,98656.05
2023-04-13T06:58:11.497Z,98650.42
2023-04-13T07:01:14.214Z,98637.07
2023-04-13T07:04:16.944Z,98650.23
2023-04-13T07:07:19.597Z,98658.82
2023-04-13T07:10:22.400Z,98665.08
2023-04-13T07:13:25.862Z,98679.21
2023-04-13T07:16:28.717Z,98683.98
2023-04-13T07:19:32.606Z,98686.55
2023-04-13T07:22:35.667Z,98686.02
2023-04-13T07:25:38.625Z,98687.70
2023-04-13T07:28:41.801Z,98693.67
2023-04-13T07:31:44.497Z,98694.26
2023-04-13T07:34:47.627Z,98693.46
2023-04-13T07:37:52.891Z,98698.60
2023-04-13T07:40:58.723Z,98708.52
2023-04-13T07:44:01.488Z,98705.41
2023-04-13T07:47:04.214Z,98711.64
2023-04-13T07:50:10.206Z,98708.20
2023-04-13T07:53:12.963Z,98706.46
2023-04-13T07:56:15.734Z,98717.16
2023-04-13T07:59:18.312Z,98730.06
2023-04-13T08:02:22.756Z,98736.19
2023-04-13T08:05:25.673Z,98731.09
2023-04-13T08:08:29.515Z,98729.37
2023-04-13T08:11:32.793Z,98732.58
2023-04-13T08:14:35.569Z,98729.89
2023-04-13T08:17:42.000Z,98726.23
2023-04-13T08:20:45.708Z,98730.75
2023-04-13T08:23:48.259Z,98731.03
2023-04-13T08:26:53.447Z,98733.76
2023-04-13T08:29:56.970Z,98733.77
2023-04-13T08:32:59.836Z,98737.69
2023-04-13T08:36:04.197Z,98737.39
2023-04-13T08:39:10.281Z,98732.54
2023-04-13T08:42:13.374Z,98724.15
2023-04-13T08:45:16.366Z,98727.55
2023-04-13T08:48:19.707Z,98734.27
2023-04-13T08:51:22.832Z,98737.35
2023-04-13T08:54:28.658Z,98744.41
2023-04-13T08:57:32.374Z,98745.42
2023-04-13T09:00:36.200Z,98746.52
2023-04-13T09:03:51.189Z,98744.32
2023-04-13T09:06:54.325Z,98744.31
2023-04-13T09:09:59.163Z,98749.20
2023-04-13T09:13:01.885Z,98758.78
2023-04-13T09:16:05.344Z,98768.59
2023-04-13T09:19:08.873Z,98775.56
2023-04-13T09:22:16.327Z,98775.44
2023-04-13T09:25:25.715Z,98774.02
2023-04-13T09:28:28.309Z,98767.82
2023-04-13T09:31:34.760Z,98764.45
2023-04-13T09:34:37.679Z,98767.40
2023-04-13T09:37:42.667Z,98768.50
2023-04-13T09:40:49.553Z,98770.63
2023-04-13T09:43:52.194Z,98775.07
2023-04-13T09:46:59.854Z,98776.86
2023-04-13T09:50:04.958Z,98786.26
2023-04-13T09:53:10.847Z,98793.20
2023-04-13T09:56:14.855Z,98797.41
2023-04-13T09:59:19.992Z,98798.05
2023-04-13T10:02:23.535Z,98800.54
2023-04-13T10:05:28.915Z,98797.97
2023-04-13T10:08:38.038Z,98796.82
2023-04-13T10:11:46.785Z,98788.90
2023-04-13T10:14:55.932Z,98768.02
2023-04-13T10:18:33.973Z,98789.32
2023-04-13T10:21:40.068Z,98797.23
2023-04-13T10:24:43.905Z,98782.27
2023-04-13T10:27:57.138Z,98793.91
2023-04-13T10:31:02.676Z,98796.35
2023-04-13T10:34:10.643Z,98800.52
2023-04-13T10:37:19.861Z,98800.54
2023-04-13T10:40:22.801Z,98806.79
2023-04-13T10:43:29.830Z,98808.80
2023-04-13T10:46:36.243Z,98811.86
2023-04-13T10:49:39.319Z,98814.45
2023-04-13T10:52:42.043Z,98817.68
2023-04-13T10:55:44.616Z,98828.31
2023-04-13T10:58:54.268Z,98827.63
2023-04-13T11:01:56.924Z,98828.22
2023-04-13T11:04:59.817Z,98830.05
2023-04-13T11:08:04.733Z,98835.84
2023-04-13T11:11:07.431Z,98837.54
2023-04-13T11:14:10.063Z,98836.84
2023-04-13T11:17:18.585Z,98837.80
2023-04-13T11:20:31.386Z,98845.02
2023-04-13T11:23:35.139Z,98844.95
2023-04-13T11:26:38.675Z,98843.89
2023-04-13T11:29:41.532Z,98839.13
2023-04-13T11:32:44.824Z,98851.26
2023-04-13T11:35:50.306Z,98851.27
2023-04-13T11:38:54.897Z,98850.98
2023-04-13T11:41:58.390Z,98844.40
2023-04-13T11:45:01.217Z,98840.65
2023-04-13T11:48:06.402Z,98834.69
2023-04-13T11:51:11.292Z,98838.59
2023-04-13T11:54:14.730Z,98836.85
2023-04-13T11:57:18.354Z,98837.21
2023-04-13T12:00:28.370Z,98841.89
2023-04-13T12:03:47.030Z,98837.59
2023-04-13T12:06:58.329Z,98832.82
2023-04-13T12:10:05.521Z,98828.11
2023-04-13T12:13:19.887Z,98828.96
2023-04-13T12:19:43.808Z,98830.63
2023-04-13T12:22:57.644Z,98830.96
2023-04-13T12:26:25.937Z,98828.59
2023-04-13T12:29:30.785Z,98826.02
2023-04-13T12:32:39.962Z,98826.00
2023-04-13T12:35:42.656Z,98831.55
2023-04-13T12:38:46.020Z,98826.59
2023-04-13T12:41:48.586Z,98829.73
2023-04-13T12:44:51.760Z,98826.33
2023-04-13T12:47:54.448Z,98825.38
2023-04-13T12:50:57.226Z,98828.76
2023-04-13T12:53:59.858Z,98830.05
2023-04-13T12:57:02.600Z,98827.41
2023-04-13T13:00:10.702Z,98834.77
2023-04-13T13:03:14.435Z,98828.44
2023-04-13T13:06:17.697Z,98837.11
2023-04-13T13:09:20.806Z,98837.57
2023-04-13T13:12:23.897Z,98843.00
2023-04-13T13:15:26.828Z,98841.63
2023-04-13T13:18:42.714Z,98839.09
2023-04-13T13:21:52.297Z,98840.65
2023-04-13T13:24:55.106Z,98839.89
2023-04-13T13:31:08.393Z,98839.07
2023-04-13T13:34:11.033Z,98839.50
2023-04-13T13:37:14.202Z,98836.66
2023-04-13T13:40:30.213Z,98832.75
2023-04-13T13:43:32.989Z,98828.39
2023-04-13T13:46:36.712Z,98823.87
2023-04-13T13:49:39.454Z,98821.30
2023-04-13T13:52:55.335Z,98825.07
2023-04-13T13:56:04.853Z,98829.84
2023-04-13T13:59:07.422Z,98828.95
2023-04-13T14:02:10.512Z,98827.70
2023-04-13T14:05:18.414Z,98827.22
2023-04-13T14:08:21.145Z,98832.40
2023-04-13T14:11:24.325Z,98832.02
2023-04-13T14:14:27.020Z,98837.78
2023-04-13T14:17:29.689Z,98837.27
2023-04-13T14:20:34.324Z,98836.30
2023-04-13T14:23:38.199Z,98839.60
2023-04-13T14:26:41.870Z,98842.91
2023-04-13T14:29:46.732Z,98852.83
2023-04-13T14:32:49.567Z,98853.90
2023-04-13T14:35:52.188Z,98855.81
2023-04-13T14:38:55.064Z,98855.64
2023-04-13T14:41:57.735Z,98850.83
2023-04-13T14:45:00.367Z,98850.79
2023-04-13T14:48:03.159Z,98852.94
2023-04-13T14:51:07.255Z,98858.48
2023-04-13T14:54:10.006Z,98858.20
2023-04-13T14:57:12.972Z,98859.31
2023-04-13T15:00:21.682Z,98861.79
2023-04-13T15:03:24.943Z,98862.95
2023-04-13T15:06:28.303Z,98863.43
2023-04-13T15:09:31.888Z,98867.73
2023-04-13T15:12:35.082Z,98864.76
2023-04-13T15:15:40.910Z,98864.95
2023-04-13T15:18:43.885Z,98867.03
2023-04-13T15:21:47.072Z,98871.69
2023-04-13T15:24:49.940Z,98870.61
2023-04-13T15:27:54.631Z,98872.47
2023-04-13T15:30:57.488Z,98874.16
2023-04-13T15:34:00.407Z,98871.01
2023-04-13T15:37:03.141Z,98877.09
2023-04-13T15:40:07.903Z,98879.46
2023-04-13T15:43:12.038Z,98882.42
2023-04-13T15:46:14.729Z,98880.73
2023-04-13T15:49:17.376Z,98878.41
2023-04-13T15:52:20.249Z,98884.76
2023-04-13T15:55:22.898Z,98883.92
2023-04-13T15:58:25.686Z,98881.19
2023-04-13T16:01:30.884Z,98885.02
2023-04-13T16:04:33.828Z,98887.79
2023-04-13T16:07:38.247Z,98892.25
2023-04-13T16:10:42.178Z,98895.77
2023-04-13T16:13:48.609Z,98897.48
2023-04-13T16:17:00.098Z,98897.70
2023-04-13T16:20:31.206Z,98900.80
2023-04-13T16:23:34.057Z,98900.51
2023-04-13T16:26:39.297Z,98902.31
2023-04-13T16:29:43.569Z,98904.09
2023-04-13T16:32:47.216Z,98906.01
2023-04-13T16:35:51.496Z,98908.84
2023-04-13T16:38:54.496Z,98910.27
2023-04-13T16:41:57.091Z,98911.73
2023-04-13T16:45:00.842Z,98917.02
2023-04-13T16:48:04.979Z,98920.46
2023-04-13T16:51:10.368Z,98923.57
2023-04-13T16:54:18.049Z,98929.70
2023-04-13T16:57:21.294Z,98934.67
2023-04-13T17:00:24.499Z,98942.76
2023-04-13T17:03:27.925Z,98941.45
2023-04-13T17:06:31.921Z,98939.84
2023-04-13T17:09:37.326Z,98944.25
2023-04-13T17:12:40.899Z,98940.80
2023-04-13T17:15:43.663Z,98945.82
2023-04-13T17:18:46.773Z,98949.77
2023-04-13T17:21:51.543Z,98951.23
2023-04-13T17:24:55.316Z,98951.75
2023-04-13T17:28:00.288Z,98957.17
2023-04-13T17:31:06.098Z,98958.30
2023-04-13T17:34:09.616Z,98960.73
2023-04-13T17:37:13.017Z,98960.89
2023-04-13T17:40:20.531Z,98962.16
2023-04-13T17:43:24.163Z,98958.40
2023-04-13T17:46:30.013Z,98960.64
2023-04-13T17:49:33.950Z,98959.75
2023-04-13T17:52:37.216Z,98961.32
2023-04-13T17:55:40.318Z,98960.27
2023-04-13T17:58:43.192Z,98963.80
2023-04-13T18:01:46.409Z,98971.55
2023-04-13T18:04:49.783Z,98978.79
2023-04-13T18:07:52.448Z,98975.52
2023-04-13T18:10:56.723Z,98981.87
2023-04-13T18:14:03.258Z,98969.77
2023-04-13T18:17:08.318Z,98987.84
2023-04-13T18:20:12.138Z,98986.47
2023-04-13T18:23:14.992Z,98993.91
2023-04-13T18:26:20.211Z,98992.70
2023-04-13T18:29:22.994Z,98990.48
2023-04-13T18:32:26.229Z,98993.83
2023-04-13T18:35:29.742Z,98995.83
2023-04-13T18:38:35.537Z,99004.54
2023-04-13T18:41:40.203Z,99006.64
2023-04-13T18:44:44.468Z,99007.64
2023-04-13T18:47:47.210Z,99007.89
2023-04-13T18:50:50.094Z,99008.67
2023-04-13T18:53:53.079Z,99005.35
2023-04-13T18:56:55.711Z,99006.79
2023-04-13T18:59:58.818Z,99002.55
2023-04-13T19:03:01.766Z,99006.06
2023-04-13T19:06:05.636Z,99011.26
2023-04-13T19:09:08.574Z,99014.58
2023-04-13T19:12:11.562Z,99010.55
2023-04-13T19:15:14.222Z,99008.25
2023-04-13T19:18:17.309Z,99011.09
2023-04-13T19:21:23.884Z,99009.86
2023-04-13T19:24:26.677Z,99022.77
2023-04-13T19:27:31.841Z,99026.88
2023-04-13T19:30:34.899Z,99026.35
2023-04-13T19:33:38.273Z,99033.57
2023-04-13T19:36:43.945Z,99040.73
2023-04-13T19:39:47.228Z,99039.40
2023-04-13T19:42:49.980Z,99028.28
2023-04-13T19:45:54.348Z,99042.77
2023-04-13T19:48:58.676Z,99042.58
2023-04-13T19:52:02.001Z,99044.41
2023-04-13T19:55:16.133Z,99054.48
2023-04-13T19:58:19.647Z,99053.05
2023-04-13T20:01:22.511Z,99057.48
2023-04-13T20:04:25.867Z,99058.86
2023-04-13T20:07:28.816Z,99059.48
2023-04-13T20:10:33.298Z,99061.70
2023-04-13T20:13:36.260Z,99068.10
2023-04-13T20:16:39.099Z,99071.46
2023-04-13T20:19:42.559Z,99074.42
2023-04-13T20:22:45.374Z,99078.99
2023-04-13T20:25:48.033Z,99082.90
2023-04-13T20:28:50.694Z,99091.38
2023-04-13T20:31:53.893Z,99098.41
2023-04-13T20:34:56.546Z,99098.47
2023-04-13T20:38:04.767Z,99094.47
2023-04-13T20:41:07.496Z,99094.50
2023-04-13T20:44:10.769Z,99101.02
2023-04-13T20:47:17.966Z,99091.61
2023-04-13T20:50:23.002Z,99100.53
2023-04-13T20:53:35.798Z,99098.14
2023-04-13T20:56:38.366Z,99089.52
2023-04-13T20:59:40.931Z,99083.47
2023-04-13T21:02:44.487Z,99082.73
2023-04-13T21:05:48.044Z,99079.79
2023-04-13T21:08:52.861Z,99076.69
2023-04-13T21:11:56.995Z,99074.63
2023-04-13T21:15:00.664Z,99073.22
2023-04-13T21:18:03.343Z,99071.70
2023-04-13T21:21:06.843Z,99063.68
2023-04-13T21:24:09.613Z,99057.42
2023-04-13T21:27:12.390Z,99055.46
2023-04-13T21:30:15.125Z,99049.08
2023-04-13T21:33:17.708Z,99048.21
2023-04-13T21:39:37.483Z,99041.21
2023-04-13T21:42:41.015Z,99042.73
2023-04-13T21:45:43.686Z,99039.23
2023-04-13T21:48:46.352Z,99039.05
2023-04-13T21:51:50.202Z,99034.06
2023-04-13T21:54:52.836Z,99029.02
2023-04-13T21:57:55.624Z,99021.55
2023-04-13T22:00:58.283Z,99021.70
2023-04-13T22:04:01.004Z,99024.31
2023-04-13T22:07:03.742Z,99022.45
2023-04-13T22:10:07.066Z,99026.21
2023-04-13T22:13:09.691Z,99027.86
2023-04-13T22:16:12.963Z,99033.30
2023-04-13T22:19:16.180Z,99039.88
2023-04-13T22:22:18.779Z,99038.64
2023-04-13T22:25:25.324Z,99039.54
2023-04-13T22:28:29.140Z,99036.90
2023-04-13T22:31:31.881Z,99033.84
2023-04-13T22:34:34.759Z,99033.74
2023-04-13T22:37:37.359Z,99027.19
2023-04-13T22:40:40.086Z,99014.20
2023-04-13T22:43:42.758Z,99010.22
2023-04-13T22:46:45.557Z,99016.84
2023-04-13T22:49:48.162Z,99017.66
2023-04-13T22:52:51.003Z,99020.20
2023-04-13T22:55:54.037Z,99026.23
2023-04-13T22:58:56.720Z,99021.44
2023-04-13T23:02:01.309Z,99017.16
2023-04-13T23:05:04.359Z,99003.89
2023-04-13T23:08:07.058Z,98995.42
2023-04-13T23:11:10.066Z,98993.31
2023-04-13T23:14:12.848Z,98985.72
2023-04-13T23:17:15.505Z,98974.66
2023-04-13T23:20:18.245Z,98978.19
2023-04-13T23:23:20.998Z,98979.94
2023-04-13T23:26:23.697Z,98976.82
2023-04-13T23:29:26.345Z,98974.48
2023-04-13T23:32:28.968Z,98971.63
2023-04-13T23:35:31.604Z,98972.78
2023-04-13T23:38:34.180Z,98966.13
2023-04-13T23:41:36.883Z,98963.02
2023-04-13T23:44:39.540Z,98963.86
2023-04-13T23:47:42.367Z,98959.98
2023-04-13T23:50:44.978Z,98958.06
2023-04-13T23:53:47.971Z,98958.45
2023-04-13T23:56:50.613Z,98965.45
2023-04-13T23:59:57.358Z,98969.71
